Tampa, FL

01:34 AM EDT am 27. April 2015 (GMT -0400)
MacDill Air Force Base | | Change Station
CLOSE
Current Station
Flughafen
Location: Tampa Macdill AFB,
Höhe: 13 ft
Wetterstationen in der Umgebung

Höhe 13 ft 27.85 °N, 82.52 °W | Updated 36 minutes ago

Teils Wolkig
Teils Wolkig
79 °F
gefühlte 79 °F
N
9
Wind Wechselnd Wind aus West

Heute
Max. -- | schwach -- °F
--% Regenrisiko
Gestern
Max. -- | schwach -- °F
Precip. -- inch
6:54 AM 8:01 PM
Erstes Viertel, 62% visible
Druck 29.78 inch
Sichtweite 10.0 Meilen
Wolken Teils Wolkig 19000 ft
Taupunkt 78 °F
Feuchtigkeit 95%
Regen 0.00 inch
Schneehöhe Nicht verfügbar..
UV 0 von 12
Pollen 6.80 von 12
Luftqualität Nicht verfügbar..
Flu Activity Local Activity
METAR KMCF 270458Z AUTO 27008KT 10SM SCT190 26/26 A2977 RMK AO2 SLP084 T02630255 403050257

More Conditions Fewer Conditions

Druck 29.78 inch
Sichtweite 10.0 Meilen
Wolken Teils Wolkig 19000 ft
Taupunkt 78 °F
Feuchtigkeit 95%
Regen 0.00 inch
Schneehöhe Nicht verfügbar..
UV 0 von 12
Pollen 6.80 von 12
Luftqualität Nicht verfügbar..
Flu Activity Local Activity
METAR KMCF 270458Z AUTO 27008KT 10SM SCT190 26/26 A2977 RMK AO2 SLP084 T02630255 403050257

More Conditions Fewer Conditions

The full scope of the disaster following a powerful 7.8-magnitude earthquake in Nepal may not come into view for days, but global charities are already sending emergency aid. Click to see how you can help.

10-Day Weather Forecast

Almanac

Astronomie

Apr. 27, 2015 Aufgang Untergang
Genaue Zeit
Bürgerliche Dämmerung
Nautische Dämmerung
Astronomische Dämmerung
Mond
Länge des sichtbaren Lichts
Tageslänge
Tomorrow will be .
, % of the Moon is Illuminated

Heutige Rekorde

State Highs State Lows

Community

WunderPhotos

Upload Photos

1,817,267 Fotos hochgeladen!

WunderBlogs® & News

Nearby

Luftqualität

  Luftqualität LQ Index Schadstoff
Not available.

Schneehöhe

Station Depth Höhe

Erdbebenaktivität

Stadt Distance Mag. Time & Date
Minimum magnitude displayed is 2.5.

küstennahe Wassertemperaturen

Ort Temperatur

Stations

Wetterstationen in der Umgebung

Stationsstandort Temp. Windchill Taupunkt Feuchtigkeit Wind Precip. Höhe Aktualisiert Art